Etusivu
METAR-TAF:

METAR-TAF

Lentoasemat :

Sparta, Wisconsin, Yhdysvallat

Leveyspiiri: 43-57-30N, Pituuspiiri: 090-44-16W, korkeus merenpinnasta: 255 m

Tämänhetkinen sää

Tämä raportti tehtiin 27 minuuttia sitten, kello 09.15 UTC
Tuuli 4 kn idästä
Lämpötila -4°C
Kosteus 68%
Ilmanpaine 1018 hPa
Näkyvyys: 16.1 km
Pilvistä 10000 ft:n korkeudessa

METAR: KCMY 170915Z AUTO 08004KT 10SM OVC100 M04/M09 A3005 RMK AO2 T10361095

Aika: 03:42 (09:42 UTC)


TAF: puuttuu

Säähavainnot ja -ennusteet yli 4000 lentoasemalta (METAR- ja TAF-raportit).

Käytössä olevat sääasemat on merkitty karttaan keltaisilla ja punaisilla pisteillä.

Aseta hiiri pisteen päälle nähdäksesi sääaseman nimen.

Klikkaa sitten nähdäksesi säähavainnot ja -ennusteet.

Kartan vaihtaminen: klikkaa mustalla rastilla varustettuja vihreitä pisteitä, niin voit zoomata sisään; viivalla varustettua vihreää pistettä, niin voit zoomata ulos tai vihreitä nuolia, niin pääset viereisille kartoille.


METAR-TAF: